Airfield :
LOGIN :

Register | Disclaimer

   EN    FR    IT 

 










Legend :    VFR   Marginal VFR   IFR   Intensive IFR   Very Intensive IFR
Visi :
Ceiling :
>= 8 km
>= 3000ft
5 to 8 km
1000 to 3000 ft
1500m to 5 km
500 to 1000 ft
800 to 1500m
200 to 500 ft
< 800m
< 200 ft
Symbols :   Thunderstorms  Fog  Heavy snow  Heavy precipitations  Wind > 20 kt
SIGMETs :     Misc.  Thunderstorms  Icing  Turbulence  Mountain Waves  Volcanic Ashes






- Airport Elevation : 325 ft
- IATA code : BES


LFRB - Brest

CURRENT METAR :
  • 051900Z AUTO 22012KT 9999 BKN016 OVC031 10/08 Q1022

EXPIRED METARs :
  • 051830Z AUTO 22012KT 9999 OVC015 10/08 Q1022
  • 051800Z AUTO 22011KT 9999 BKN017 BKN027 OVC100 10/07 Q1022
  • 051730Z AUTO 22012KT CAVOK 09/07 Q1022
  • 051700Z AUTO 21010KT 9999 FEW026 BKN120 OVC140 09/07 Q1022
  • 051630Z AUTO 21010KT 9999 BKN023 OVC120 10/06 Q1022

TAF TAF LFRB
Valid from the 05 at 06:00 until the 06 at 12:00 UTC


050500Z 0506/0612 VRB03KT 7000 OVC018
TEMPO 0506/0509 2000 BR OVC010
PROB30
TEMPO 0506/0508 0800 FG OVC003
BECMG 0512/0515 22010KT
BECMG 0515/0518 OVC005
PROB30
TEMPO 0518/0522 3000 BR OVC003
BECMG 0523/0602 22015G25KT 4000 -RA OVC003
TEMPO 0608/0612 2000 RA OVC001
ATIS : +33 2 98 32 02 71



MET'MAP, your aeronautical weather chart ! - Copyright ORBIFLY December 2007 - Disclaimer

ORBIFLY MET'MAP TEAM :

Programming & Development : Alexandra Zaïnal
Concept & original design : Baudouin d'Aumeries
Assistance for programming : Marc-Olivier Méhu
Technical & hardware support : Manuel Goepfert

Contact : metmap@orbifly.com




SOURCES & CREDITS :

   NOAA